sensor_id;sensor_type;location;lat;lon;timestamp;temperature;humidity
18139;DHT22;9195;53.176;9.486;2022-07-22T00:01:28;18.30;99.90
18139;DHT22;9195;53.176;9.486;2022-07-22T00:03:54;18.30;99.90
18139;DHT22;9195;53.176;9.486;2022-07-22T00:06:20;18.30;99.90
18139;DHT22;9195;53.176;9.486;2022-07-22T00:08:46;18.10;99.90
18139;DHT22;9195;53.176;9.486;2022-07-22T00:11:11;17.90;99.90
18139;DHT22;9195;53.176;9.486;2022-07-22T00:13:37;17.90;99.90
18139;DHT22;9195;53.176;9.486;2022-07-22T00:16:03;17.80;99.90
18139;DHT22;9195;53.176;9.486;2022-07-22T00:18:29;17.70;99.90
18139;DHT22;9195;53.176;9.486;2022-07-22T00:20:55;17.70;99.90
18139;DHT22;9195;53.176;9.486;2022-07-22T00:23:20;17.70;99.90
18139;DHT22;9195;53.176;9.486;2022-07-22T00:25:46;17.60;99.90
18139;DHT22;9195;53.176;9.486;2022-07-22T00:28:12;17.50;99.90
18139;DHT22;9195;53.176;9.486;2022-07-22T00:30:37;17.50;99.90
18139;DHT22;9195;53.176;9.486;2022-07-22T00:33:03;17.50;99.90
18139;DHT22;9195;53.176;9.486;2022-07-22T00:35:29;17.40;99.90
18139;DHT22;9195;53.176;9.486;2022-07-22T00:37:54;17.40;99.90
18139;DHT22;9195;53.176;9.486;2022-07-22T00:40:20;17.40;99.90
18139;DHT22;9195;53.176;9.486;2022-07-22T00:42:46;17.30;99.90
18139;DHT22;9195;53.176;9.486;2022-07-22T00:45:11;17.30;99.90
18139;DHT22;9195;53.176;9.486;2022-07-22T00:47:37;17.20;99.90
18139;DHT22;9195;53.176;9.486;2022-07-22T00:50:04;17.20;99.90
18139;DHT22;9195;53.176;9.486;2022-07-22T00:52:30;17.20;99.90
18139;DHT22;9195;53.176;9.486;2022-07-22T00:54:58;17.10;99.90
18139;DHT22;9195;53.176;9.486;2022-07-22T00:57:24;17.10;99.90
18139;DHT22;9195;53.176;9.486;2022-07-22T00:59:50;17.10;99.90
18139;DHT22;9195;53.176;9.486;2022-07-22T01:02:16;17.10;99.90
18139;DHT22;9195;53.176;9.486;2022-07-22T01:04:42;17.00;99.90
18139;DHT22;9195;53.176;9.486;2022-07-22T01:07:07;17.00;99.90
18139;DHT22;9195;53.176;9.486;2022-07-22T01:09:33;17.00;99.90
18139;DHT22;9195;53.176;9.486;2022-07-22T01:12:00;16.90;99.90
18139;DHT22;9195;53.176;9.486;2022-07-22T01:14:26;16.90;99.90
18139;DHT22;9195;53.176;9.486;2022-07-22T01:16:51;16.90;99.90
18139;DHT22;9195;53.176;9.486;2022-07-22T01:19:17;16.90;99.90
18139;DHT22;9195;53.176;9.486;2022-07-22T01:21:42;16.90;99.90
18139;DHT22;9195;53.176;9.486;2022-07-22T01:24:08;16.90;99.90
18139;DHT22;9195;53.176;9.486;2022-07-22T01:26:34;16.90;99.90
18139;DHT22;9195;53.176;9.486;2022-07-22T01:29:00;16.90;99.90
18139;DHT22;9195;53.176;9.486;2022-07-22T01:31:25;16.80;99.90
18139;DHT22;9195;53.176;9.486;2022-07-22T01:33:51;16.80;99.90
18139;DHT22;9195;53.176;9.486;2022-07-22T01:36:16;16.80;99.90
18139;DHT22;9195;53.176;9.486;2022-07-22T01:38:42;16.80;99.90
18139;DHT22;9195;53.176;9.486;2022-07-22T01:41:08;16.80;99.90
18139;DHT22;9195;53.176;9.486;2022-07-22T01:43:34;16.80;99.90
18139;DHT22;9195;53.176;9.486;2022-07-22T01:45:59;16.70;99.90
18139;DHT22;9195;53.176;9.486;2022-07-22T01:48:25;16.70;99.90
18139;DHT22;9195;53.176;9.486;2022-07-22T01:50:51;16.70;99.90
18139;DHT22;9195;53.176;9.486;2022-07-22T01:53:17;16.70;99.90
18139;DHT22;9195;53.176;9.486;2022-07-22T01:55:42;16.70;99.90
18139;DHT22;9195;53.176;9.486;2022-07-22T01:58:08;16.70;99.90
18139;DHT22;9195;53.176;9.486;2022-07-22T02:00:34;16.60;99.90
18139;DHT22;9195;53.176;9.486;2022-07-22T02:03:00;16.60;99.90
18139;DHT22;9195;53.176;9.486;2022-07-22T02:05:26;16.60;99.90
18139;DHT22;9195;53.176;9.486;2022-07-22T02:07:52;16.50;99.90
18139;DHT22;9195;53.176;9.486;2022-07-22T02:10:18;16.50;99.90
18139;DHT22;9195;53.176;9.486;2022-07-22T02:12:43;16.50;99.90
18139;DHT22;9195;53.176;9.486;2022-07-22T02:15:09;16.40;99.90
18139;DHT22;9195;53.176;9.486;2022-07-22T02:17:36;16.40;99.90
18139;DHT22;9195;53.176;9.486;2022-07-22T02:20:02;16.40;99.90
18139;DHT22;9195;53.176;9.486;2022-07-22T02:22:28;16.40;99.90
18139;DHT22;9195;53.176;9.486;2022-07-22T02:24:54;16.30;99.90
18139;DHT22;9195;53.176;9.486;2022-07-22T02:27:19;16.30;99.90
18139;DHT22;9195;53.176;9.486;2022-07-22T02:29:45;16.30;99.90
18139;DHT22;9195;53.176;9.486;2022-07-22T02:32:11;16.30;99.90
18139;DHT22;9195;53.176;9.486;2022-07-22T02:34:36;16.30;99.90
18139;DHT22;9195;53.176;9.486;2022-07-22T02:37:02;16.30;99.90
18139;DHT22;9195;53.176;9.486;2022-07-22T02:39:28;16.30;99.90
18139;DHT22;9195;53.176;9.486;2022-07-22T02:41:54;16.30;99.90
18139;DHT22;9195;53.176;9.486;2022-07-22T02:44:19;16.30;99.90
18139;DHT22;9195;53.176;9.486;2022-07-22T02:46:45;16.30;99.90
18139;DHT22;9195;53.176;9.486;2022-07-22T02:49:11;16.20;99.90
18139;DHT22;9195;53.176;9.486;2022-07-22T02:51:37;16.20;99.90
18139;DHT22;9195;53.176;9.486;2022-07-22T02:54:03;16.20;99.90
18139;DHT22;9195;53.176;9.486;2022-07-22T02:56:28;16.10;99.90
18139;DHT22;9195;53.176;9.486;2022-07-22T02:58:54;16.10;99.90
18139;DHT22;9195;53.176;9.486;2022-07-22T03:01:20;16.10;99.90
18139;DHT22;9195;53.176;9.486;2022-07-22T03:03:46;16.10;99.90
18139;DHT22;9195;53.176;9.486;2022-07-22T03:06:12;16.10;99.90
18139;DHT22;9195;53.176;9.486;2022-07-22T03:08:38;16.10;99.90
18139;DHT22;9195;53.176;9.486;2022-07-22T03:11:04;16.10;99.90
18139;DHT22;9195;53.176;9.486;2022-07-22T03:13:29;16.10;99.90
18139;DHT22;9195;53.176;9.486;2022-07-22T03:15:55;16.00;99.90
18139;DHT22;9195;53.176;9.486;2022-07-22T03:18:21;15.90;99.90
18139;DHT22;9195;53.176;9.486;2022-07-22T03:20:46;16.00;99.90
18139;DHT22;9195;53.176;9.486;2022-07-22T03:23:13;15.90;99.90
18139;DHT22;9195;53.176;9.486;2022-07-22T03:25:38;15.90;99.90
18139;DHT22;9195;53.176;9.486;2022-07-22T03:28:04;15.80;99.90
18139;DHT22;9195;53.176;9.486;2022-07-22T03:30:30;15.90;99.90
18139;DHT22;9195;53.176;9.486;2022-07-22T03:32:56;15.90;99.90
18139;DHT22;9195;53.176;9.486;2022-07-22T03:35:22;15.80;99.90
18139;DHT22;9195;53.176;9.486;2022-07-22T03:37:47;15.80;99.90
18139;DHT22;9195;53.176;9.486;2022-07-22T03:40:13;15.80;99.90
18139;DHT22;9195;53.176;9.486;2022-07-22T03:42:39;15.80;99.90
18139;DHT22;9195;53.176;9.486;2022-07-22T03:45:05;15.80;99.90
18139;DHT22;9195;53.176;9.486;2022-07-22T03:47:31;15.80;99.90
18139;DHT22;9195;53.176;9.486;2022-07-22T03:49:56;15.80;99.90
18139;DHT22;9195;53.176;9.486;2022-07-22T03:52:24;15.70;99.90
18139;DHT22;9195;53.176;9.486;2022-07-22T03:54:49;15.70;99.90
18139;DHT22;9195;53.176;9.486;2022-07-22T03:57:15;15.70;99.90
18139;DHT22;9195;53.176;9.486;2022-07-22T03:59:40;15.70;99.90
18139;DHT22;9195;53.176;9.486;2022-07-22T04:02:06;15.70;99.90
18139;DHT22;9195;53.176;9.486;2022-07-22T04:04:32;15.70;99.90
18139;DHT22;9195;53.176;9.486;2022-07-22T04:06:57;15.70;99.90
18139;DHT22;9195;53.176;9.486;2022-07-22T04:09:23;15.70;99.90
18139;DHT22;9195;53.176;9.486;2022-07-22T04:11:48;15.70;99.90
18139;DHT22;9195;53.176;9.486;2022-07-22T04:14:16;15.70;99.90
18139;DHT22;9195;53.176;9.486;2022-07-22T04:16:42;15.70;99.90
18139;DHT22;9195;53.176;9.486;2022-07-22T04:19:09;15.70;99.90
18139;DHT22;9195;53.176;9.486;2022-07-22T04:21:35;15.70;99.90
18139;DHT22;9195;53.176;9.486;2022-07-22T04:24:00;15.70;99.90
18139;DHT22;9195;53.176;9.486;2022-07-22T04:26:26;15.70;99.90
18139;DHT22;9195;53.176;9.486;2022-07-22T04:28:52;15.70;99.90
18139;DHT22;9195;53.176;9.486;2022-07-22T04:31:17;15.70;99.90
18139;DHT22;9195;53.176;9.486;2022-07-22T04:33:43;15.70;99.90
18139;DHT22;9195;53.176;9.486;2022-07-22T04:36:08;15.80;99.90
18139;DHT22;9195;53.176;9.486;2022-07-22T04:38:34;15.80;99.90
18139;DHT22;9195;53.176;9.486;2022-07-22T04:41:00;15.70;99.90
18139;DHT22;9195;53.176;9.486;2022-07-22T04:43:25;15.70;99.90
18139;DHT22;9195;53.176;9.486;2022-07-22T04:45:51;15.70;99.90
18139;DHT22;9195;53.176;9.486;2022-07-22T04:48:17;15.80;99.90
18139;DHT22;9195;53.176;9.486;2022-07-22T04:50:43;15.70;99.90
18139;DHT22;9195;53.176;9.486;2022-07-22T04:53:09;15.70;99.90
18139;DHT22;9195;53.176;9.486;2022-07-22T04:55:34;15.80;99.90
18139;DHT22;9195;53.176;9.486;2022-07-22T04:58:00;15.70;99.90
18139;DHT22;9195;53.176;9.486;2022-07-22T05:00:26;15.70;99.90
18139;DHT22;9195;53.176;9.486;2022-07-22T05:02:51;15.70;99.90
18139;DHT22;9195;53.176;9.486;2022-07-22T05:05:17;15.70;99.90
18139;DHT22;9195;53.176;9.486;2022-07-22T05:07:43;15.70;99.90
18139;DHT22;9195;53.176;9.486;2022-07-22T05:10:08;15.70;99.90
18139;DHT22;9195;53.176;9.486;2022-07-22T05:12:34;15.70;99.90
18139;DHT22;9195;53.176;9.486;2022-07-22T05:15:00;15.60;99.90
18139;DHT22;9195;53.176;9.486;2022-07-22T05:17:25;15.70;99.90
18139;DHT22;9195;53.176;9.486;2022-07-22T05:19:51;15.60;99.90
18139;DHT22;9195;53.176;9.486;2022-07-22T05:22:16;15.60;99.90
18139;DHT22;9195;53.176;9.486;2022-07-22T05:24:42;15.60;99.90
18139;DHT22;9195;53.176;9.486;2022-07-22T05:27:08;15.50;99.90
18139;DHT22;9195;53.176;9.486;2022-07-22T05:29:33;15.50;99.90
18139;DHT22;9195;53.176;9.486;2022-07-22T05:31:59;15.60;99.90
18139;DHT22;9195;53.176;9.486;2022-07-22T05:34:25;15.60;99.90
18139;DHT22;9195;53.176;9.486;2022-07-22T05:36:51;15.60;99.90
18139;DHT22;9195;53.176;9.486;2022-07-22T05:39:16;15.60;99.90
18139;DHT22;9195;53.176;9.486;2022-07-22T05:41:42;15.60;99.90
18139;DHT22;9195;53.176;9.486;2022-07-22T05:44:07;15.60;99.90
18139;DHT22;9195;53.176;9.486;2022-07-22T05:46:33;15.70;99.90
18139;DHT22;9195;53.176;9.486;2022-07-22T05:48:58;15.80;99.90
18139;DHT22;9195;53.176;9.486;2022-07-22T05:51:24;15.80;99.90
18139;DHT22;9195;53.176;9.486;2022-07-22T05:53:50;15.80;99.90
18139;DHT22;9195;53.176;9.486;2022-07-22T05:56:16;15.80;99.90
18139;DHT22;9195;53.176;9.486;2022-07-22T05:58:42;15.90;99.90
18139;DHT22;9195;53.176;9.486;2022-07-22T06:01:09;16.00;99.90
18139;DHT22;9195;53.176;9.486;2022-07-22T06:03:35;16.00;99.90
18139;DHT22;9195;53.176;9.486;2022-07-22T06:06:01;16.00;99.90
18139;DHT22;9195;53.176;9.486;2022-07-22T06:08:28;16.00;99.90
18139;DHT22;9195;53.176;9.486;2022-07-22T06:10:54;16.10;99.90
18139;DHT22;9195;53.176;9.486;2022-07-22T06:13:20;16.00;99.90
18139;DHT22;9195;53.176;9.486;2022-07-22T06:15:45;16.00;99.90
18139;DHT22;9195;53.176;9.486;2022-07-22T06:18:11;16.10;99.90
18139;DHT22;9195;53.176;9.486;2022-07-22T06:20:37;16.20;99.90
18139;DHT22;9195;53.176;9.486;2022-07-22T06:23:03;16.30;99.90
18139;DHT22;9195;53.176;9.486;2022-07-22T06:25:29;16.40;99.90
18139;DHT22;9195;53.176;9.486;2022-07-22T06:27:55;16.50;99.90
18139;DHT22;9195;53.176;9.486;2022-07-22T06:30:20;16.70;99.90
18139;DHT22;9195;53.176;9.486;2022-07-22T06:32:46;16.70;99.90
18139;DHT22;9195;53.176;9.486;2022-07-22T06:35:11;17.00;99.90
18139;DHT22;9195;53.176;9.486;2022-07-22T06:37:37;17.00;99.90
18139;DHT22;9195;53.176;9.486;2022-07-22T06:40:03;17.10;99.90
18139;DHT22;9195;53.176;9.486;2022-07-22T06:42:29;17.30;99.90
18139;DHT22;9195;53.176;9.486;2022-07-22T06:44:55;17.30;99.90
18139;DHT22;9195;53.176;9.486;2022-07-22T06:47:20;17.40;99.90
18139;DHT22;9195;53.176;9.486;2022-07-22T06:49:46;17.40;99.90
18139;DHT22;9195;53.176;9.486;2022-07-22T06:52:11;17.50;99.90
18139;DHT22;9195;53.176;9.486;2022-07-22T06:54:37;17.70;99.90
18139;DHT22;9195;53.176;9.486;2022-07-22T06:57:03;17.80;99.90
18139;DHT22;9195;53.176;9.486;2022-07-22T06:59:28;17.70;99.90
18139;DHT22;9195;53.176;9.486;2022-07-22T07:01:54;17.80;99.90
18139;DHT22;9195;53.176;9.486;2022-07-22T07:04:19;17.80;99.90
18139;DHT22;9195;53.176;9.486;2022-07-22T07:06:46;17.80;99.90
18139;DHT22;9195;53.176;9.486;2022-07-22T07:09:12;17.90;99.90
18139;DHT22;9195;53.176;9.486;2022-07-22T07:11:37;18.00;99.90
18139;DHT22;9195;53.176;9.486;2022-07-22T07:14:03;18.00;99.90
18139;DHT22;9195;53.176;9.486;2022-07-22T07:16:29;17.90;99.90
18139;DHT22;9195;53.176;9.486;2022-07-22T07:18:54;17.80;99.90
18139;DHT22;9195;53.176;9.486;2022-07-22T07:21:20;18.10;99.90
18139;DHT22;9195;53.176;9.486;2022-07-22T07:23:46;18.20;99.90
18139;DHT22;9195;53.176;9.486;2022-07-22T07:26:12;18.40;99.90
18139;DHT22;9195;53.176;9.486;2022-07-22T07:28:38;18.50;99.90
18139;DHT22;9195;53.176;9.486;2022-07-22T07:31:04;18.50;99.90
18139;DHT22;9195;53.176;9.486;2022-07-22T07:33:30;18.40;99.90
18139;DHT22;9195;53.176;9.486;2022-07-22T07:35:56;18.20;99.90
18139;DHT22;9195;53.176;9.486;2022-07-22T07:38:21;18.20;99.90
18139;DHT22;9195;53.176;9.486;2022-07-22T07:40:47;18.30;99.90
18139;DHT22;9195;53.176;9.486;2022-07-22T07:43:13;18.20;99.90
18139;DHT22;9195;53.176;9.486;2022-07-22T07:45:39;18.30;99.90
18139;DHT22;9195;53.176;9.486;2022-07-22T07:48:05;18.30;99.90
18139;DHT22;9195;53.176;9.486;2022-07-22T07:50:31;18.40;99.90
18139;DHT22;9195;53.176;9.486;2022-07-22T07:52:57;18.50;99.90
18139;DHT22;9195;53.176;9.486;2022-07-22T07:55:23;18.70;99.90
18139;DHT22;9195;53.176;9.486;2022-07-22T07:57:49;18.60;99.90
18139;DHT22;9195;53.176;9.486;2022-07-22T08:00:16;18.80;99.90
18139;DHT22;9195;53.176;9.486;2022-07-22T08:02:43;18.90;99.90
18139;DHT22;9195;53.176;9.486;2022-07-22T08:05:09;18.90;99.90
18139;DHT22;9195;53.176;9.486;2022-07-22T08:07:36;19.10;99.90
18139;DHT22;9195;53.176;9.486;2022-07-22T08:10:06;19.30;99.90
18139;DHT22;9195;53.176;9.486;2022-07-22T08:12:32;19.40;99.90
18139;DHT22;9195;53.176;9.486;2022-07-22T08:14:57;19.40;99.90
18139;DHT22;9195;53.176;9.486;2022-07-22T08:17:23;19.30;99.90
18139;DHT22;9195;53.176;9.486;2022-07-22T08:19:49;19.20;99.90
18139;DHT22;9195;53.176;9.486;2022-07-22T08:22:14;19.10;99.90
18139;DHT22;9195;53.176;9.486;2022-07-22T08:24:40;19.00;99.90
18139;DHT22;9195;53.176;9.486;2022-07-22T08:27:06;19.00;99.90
18139;DHT22;9195;53.176;9.486;2022-07-22T08:29:31;18.80;99.90
18139;DHT22;9195;53.176;9.486;2022-07-22T08:31:58;18.70;99.90
18139;DHT22;9195;53.176;9.486;2022-07-22T08:34:24;18.80;99.90
18139;DHT22;9195;53.176;9.486;2022-07-22T08:36:49;18.80;99.90
18139;DHT22;9195;53.176;9.486;2022-07-22T08:39:15;18.90;99.90
18139;DHT22;9195;53.176;9.486;2022-07-22T08:41:41;19.00;99.90
18139;DHT22;9195;53.176;9.486;2022-07-22T08:44:09;19.20;99.90
18139;DHT22;9195;53.176;9.486;2022-07-22T08:46:35;19.30;99.90
18139;DHT22;9195;53.176;9.486;2022-07-22T08:49:00;19.50;99.90
18139;DHT22;9195;53.176;9.486;2022-07-22T08:51:27;19.50;99.90
18139;DHT22;9195;53.176;9.486;2022-07-22T08:53:54;19.30;99.90
18139;DHT22;9195;53.176;9.486;2022-07-22T08:56:20;19.30;99.90
18139;DHT22;9195;53.176;9.486;2022-07-22T08:58:45;19.30;99.90
18139;DHT22;9195;53.176;9.486;2022-07-22T09:01:15;19.30;99.90
18139;DHT22;9195;53.176;9.486;2022-07-22T09:03:56;19.20;99.90
18139;DHT22;9195;53.176;9.486;2022-07-22T09:06:25;19.40;99.90
18139;DHT22;9195;53.176;9.486;2022-07-22T09:08:59;19.30;99.90
18139;DHT22;9195;53.176;9.486;2022-07-22T09:11:28;19.40;99.90
18139;DHT22;9195;53.176;9.486;2022-07-22T09:13:56;19.70;99.90
18139;DHT22;9195;53.176;9.486;2022-07-22T09:19:06;19.70;99.90
18139;DHT22;9195;53.176;9.486;2022-07-22T09:21:35;19.70;99.90
18139;DHT22;9195;53.176;9.486;2022-07-22T09:24:03;19.50;99.90
18139;DHT22;9195;53.176;9.486;2022-07-22T09:28:56;19.40;99.90
18139;DHT22;9195;53.176;9.486;2022-07-22T09:31:27;19.50;99.90
18139;DHT22;9195;53.176;9.486;2022-07-22T09:33:55;19.60;99.90
18139;DHT22;9195;53.176;9.486;2022-07-22T09:36:21;19.40;99.90
18139;DHT22;9195;53.176;9.486;2022-07-22T09:38:46;19.20;99.90
18139;DHT22;9195;53.176;9.486;2022-07-22T09:41:12;19.30;99.90
18139;DHT22;9195;53.176;9.486;2022-07-22T09:43:39;19.50;99.90
18139;DHT22;9195;53.176;9.486;2022-07-22T09:46:05;19.50;99.90
18139;DHT22;9195;53.176;9.486;2022-07-22T09:48:31;19.50;99.90
18139;DHT22;9195;53.176;9.486;2022-07-22T09:50:58;19.70;99.90
18139;DHT22;9195;53.176;9.486;2022-07-22T09:53:26;19.80;99.90
18139;DHT22;9195;53.176;9.486;2022-07-22T09:55:53;19.80;99.90
18139;DHT22;9195;53.176;9.486;2022-07-22T09:58:19;19.90;99.90
18139;DHT22;9195;53.176;9.486;2022-07-22T10:00:45;19.90;99.90
18139;DHT22;9195;53.176;9.486;2022-07-22T10:03:19;19.90;99.90
18139;DHT22;9195;53.176;9.486;2022-07-22T10:05:46;19.80;99.90
18139;DHT22;9195;53.176;9.486;2022-07-22T10:08:12;19.80;99.90
18139;DHT22;9195;53.176;9.486;2022-07-22T10:10:39;20.10;99.90
18139;DHT22;9195;53.176;9.486;2022-07-22T10:13:06;20.20;99.90
18139;DHT22;9195;53.176;9.486;2022-07-22T10:15:35;20.30;99.90
18139;DHT22;9195;53.176;9.486;2022-07-22T10:18:03;20.80;99.90
18139;DHT22;9195;53.176;9.486;2022-07-22T10:20:32;21.20;99.90
18139;DHT22;9195;53.176;9.486;2022-07-22T10:23:06;21.20;99.90
18139;DHT22;9195;53.176;9.486;2022-07-22T10:25:48;21.10;99.90
18139;DHT22;9195;53.176;9.486;2022-07-22T10:30:47;20.80;99.90
18139;DHT22;9195;53.176;9.486;2022-07-22T10:33:17;20.80;99.90
18139;DHT22;9195;53.176;9.486;2022-07-22T10:38:23;20.60;99.90
18139;DHT22;9195;53.176;9.486;2022-07-22T10:40:55;20.50;99.90
18139;DHT22;9195;53.176;9.486;2022-07-22T10:43:32;20.40;99.90
18139;DHT22;9195;53.176;9.486;2022-07-22T10:46:08;20.40;99.90
18139;DHT22;9195;53.176;9.486;2022-07-22T10:51:09;20.50;99.90
18139;DHT22;9195;53.176;9.486;2022-07-22T10:58:52;20.90;99.90
18139;DHT22;9195;53.176;9.486;2022-07-22T11:01:20;20.80;99.90
18139;DHT22;9195;53.176;9.486;2022-07-22T11:03:48;20.70;99.90
18139;DHT22;9195;53.176;9.486;2022-07-22T11:06:27;20.40;99.90
18139;DHT22;9195;53.176;9.486;2022-07-22T11:08:59;20.50;99.90
18139;DHT22;9195;53.176;9.486;2022-07-22T11:11:42;20.50;99.90
18139;DHT22;9195;53.176;9.486;2022-07-22T11:14:29;20.50;99.90
18139;DHT22;9195;53.176;9.486;2022-07-22T11:17:04;20.50;99.90
18139;DHT22;9195;53.176;9.486;2022-07-22T11:19:30;20.40;99.90
18139;DHT22;9195;53.176;9.486;2022-07-22T11:22:04;20.40;99.90
18139;DHT22;9195;53.176;9.486;2022-07-22T11:24:31;20.50;99.90
18139;DHT22;9195;53.176;9.486;2022-07-22T11:26:58;20.60;99.90
18139;DHT22;9195;53.176;9.486;2022-07-22T11:29:31;20.80;99.90
18139;DHT22;9195;53.176;9.486;2022-07-22T11:32:03;21.00;99.90
18139;DHT22;9195;53.176;9.486;2022-07-22T11:34:29;21.00;99.90
18139;DHT22;9195;53.176;9.486;2022-07-22T11:36:55;21.20;99.90
18139;DHT22;9195;53.176;9.486;2022-07-22T11:39:24;21.10;99.90
18139;DHT22;9195;53.176;9.486;2022-07-22T11:41:51;20.90;99.90
18139;DHT22;9195;53.176;9.486;2022-07-22T11:44:19;20.90;99.90
18139;DHT22;9195;53.176;9.486;2022-07-22T11:46:45;21.00;99.90
18139;DHT22;9195;53.176;9.486;2022-07-22T11:49:14;21.10;99.90
18139;DHT22;9195;53.176;9.486;2022-07-22T11:51:40;21.30;99.90
18139;DHT22;9195;53.176;9.486;2022-07-22T11:54:05;21.40;99.90
18139;DHT22;9195;53.176;9.486;2022-07-22T11:56:32;21.40;99.90
18139;DHT22;9195;53.176;9.486;2022-07-22T11:58:58;21.40;99.90
18139;DHT22;9195;53.176;9.486;2022-07-22T12:01:26;21.20;99.90
18139;DHT22;9195;53.176;9.486;2022-07-22T12:03:54;21.10;99.90
18139;DHT22;9195;53.176;9.486;2022-07-22T12:06:21;21.10;99.90
18139;DHT22;9195;53.176;9.486;2022-07-22T12:09:05;21.10;99.90
18139;DHT22;9195;53.176;9.486;2022-07-22T12:11:32;20.90;99.90
18139;DHT22;9195;53.176;9.486;2022-07-22T12:14:14;20.80;99.90
18139;DHT22;9195;53.176;9.486;2022-07-22T12:16:42;20.80;99.90
18139;DHT22;9195;53.176;9.486;2022-07-22T12:19:10;20.80;99.90
18139;DHT22;9195;53.176;9.486;2022-07-22T12:21:50;20.90;99.90
18139;DHT22;9195;53.176;9.486;2022-07-22T12:24:35;21.10;99.90
18139;DHT22;9195;53.176;9.486;2022-07-22T12:27:04;21.10;99.90
18139;DHT22;9195;53.176;9.486;2022-07-22T12:32:07;21.00;99.90
18139;DHT22;9195;53.176;9.486;2022-07-22T12:34:43;20.90;99.90
18139;DHT22;9195;53.176;9.486;2022-07-22T12:37:31;21.30;99.90
18139;DHT22;9195;53.176;9.486;2022-07-22T12:47:51;23.90;99.90
18139;DHT22;9195;53.176;9.486;2022-07-22T12:50:30;24.60;99.90
18139;DHT22;9195;53.176;9.486;2022-07-22T12:53:05;24.80;99.90
18139;DHT22;9195;53.176;9.486;2022-07-22T12:55:36;24.70;99.90
18139;DHT22;9195;53.176;9.486;2022-07-22T12:58:03;24.50;99.90
18139;DHT22;9195;53.176;9.486;2022-07-22T13:00:36;23.90;99.90
18139;DHT22;9195;53.176;9.486;2022-07-22T13:03:02;23.60;99.90
18139;DHT22;9195;53.176;9.486;2022-07-22T13:05:28;23.40;99.90
18139;DHT22;9195;53.176;9.486;2022-07-22T13:07:54;23.20;99.90
18139;DHT22;9195;53.176;9.486;2022-07-22T13:10:23;23.00;99.90
18139;DHT22;9195;53.176;9.486;2022-07-22T13:12:49;22.70;99.90
18139;DHT22;9195;53.176;9.486;2022-07-22T13:15:15;22.50;99.90
18139;DHT22;9195;53.176;9.486;2022-07-22T13:17:41;22.30;99.90
18139;DHT22;9195;53.176;9.486;2022-07-22T13:20:08;22.30;99.90
18139;DHT22;9195;53.176;9.486;2022-07-22T13:22:35;22.20;99.90
18139;DHT22;9195;53.176;9.486;2022-07-22T13:25:01;22.30;99.90
18139;DHT22;9195;53.176;9.486;2022-07-22T13:27:26;22.60;99.90
18139;DHT22;9195;53.176;9.486;2022-07-22T13:29:52;22.80;99.90
18139;DHT22;9195;53.176;9.486;2022-07-22T13:32:17;23.10;99.90
18139;DHT22;9195;53.176;9.486;2022-07-22T13:34:43;23.00;99.90
18139;DHT22;9195;53.176;9.486;2022-07-22T13:37:09;22.80;99.90
18139;DHT22;9195;53.176;9.486;2022-07-22T13:39:35;22.10;99.90
18139;DHT22;9195;53.176;9.486;2022-07-22T13:42:00;21.90;99.90
18139;DHT22;9195;53.176;9.486;2022-07-22T13:44:26;21.90;99.90
18139;DHT22;9195;53.176;9.486;2022-07-22T13:46:51;21.80;99.90
18139;DHT22;9195;53.176;9.486;2022-07-22T13:49:18;21.70;99.90
18139;DHT22;9195;53.176;9.486;2022-07-22T13:51:43;21.80;99.90
18139;DHT22;9195;53.176;9.486;2022-07-22T13:54:09;22.00;99.90
18139;DHT22;9195;53.176;9.486;2022-07-22T13:56:34;22.20;99.90
18139;DHT22;9195;53.176;9.486;2022-07-22T13:59:00;22.30;99.90
18139;DHT22;9195;53.176;9.486;2022-07-22T14:01:28;22.00;99.90
18139;DHT22;9195;53.176;9.486;2022-07-22T14:03:54;21.70;99.90
18139;DHT22;9195;53.176;9.486;2022-07-22T14:06:20;21.50;99.90
18139;DHT22;9195;53.176;9.486;2022-07-22T14:08:45;21.30;99.90
18139;DHT22;9195;53.176;9.486;2022-07-22T14:11:11;21.40;99.90
18139;DHT22;9195;53.176;9.486;2022-07-22T14:13:36;21.50;99.90
18139;DHT22;9195;53.176;9.486;2022-07-22T14:16:02;21.50;99.90
18139;DHT22;9195;53.176;9.486;2022-07-22T14:18:46;21.70;99.90
18139;DHT22;9195;53.176;9.486;2022-07-22T14:21:12;21.90;99.90
18139;DHT22;9195;53.176;9.486;2022-07-22T14:23:37;22.00;99.90
18139;DHT22;9195;53.176;9.486;2022-07-22T14:26:03;22.20;99.90
18139;DHT22;9195;53.176;9.486;2022-07-22T14:28:29;22.30;99.90
18139;DHT22;9195;53.176;9.486;2022-07-22T14:30:55;22.40;99.90
18139;DHT22;9195;53.176;9.486;2022-07-22T14:33:21;22.60;99.90
18139;DHT22;9195;53.176;9.486;2022-07-22T14:35:46;22.60;99.90
18139;DHT22;9195;53.176;9.486;2022-07-22T14:38:12;22.60;99.90
18139;DHT22;9195;53.176;9.486;2022-07-22T14:40:38;22.60;99.90
18139;DHT22;9195;53.176;9.486;2022-07-22T14:43:03;22.30;99.90
18139;DHT22;9195;53.176;9.486;2022-07-22T14:45:29;22.30;99.90
18139;DHT22;9195;53.176;9.486;2022-07-22T14:47:54;22.20;99.90
18139;DHT22;9195;53.176;9.486;2022-07-22T14:50:20;22.20;99.90
18139;DHT22;9195;53.176;9.486;2022-07-22T14:52:46;22.00;99.90
18139;DHT22;9195;53.176;9.486;2022-07-22T14:55:12;21.70;99.90
18139;DHT22;9195;53.176;9.486;2022-07-22T14:57:38;21.70;99.90
18139;DHT22;9195;53.176;9.486;2022-07-22T15:00:04;21.60;99.90
18139;DHT22;9195;53.176;9.486;2022-07-22T15:02:30;21.50;99.90
18139;DHT22;9195;53.176;9.486;2022-07-22T15:04:56;21.40;99.90
18139;DHT22;9195;53.176;9.486;2022-07-22T15:07:21;21.20;99.90
18139;DHT22;9195;53.176;9.486;2022-07-22T15:09:47;21.10;99.90
18139;DHT22;9195;53.176;9.486;2022-07-22T15:12:12;20.80;99.90
18139;DHT22;9195;53.176;9.486;2022-07-22T15:14:38;20.80;99.90
18139;DHT22;9195;53.176;9.486;2022-07-22T15:17:04;20.80;99.90
18139;DHT22;9195;53.176;9.486;2022-07-22T15:19:29;20.80;99.90
18139;DHT22;9195;53.176;9.486;2022-07-22T15:21:55;20.70;99.90
18139;DHT22;9195;53.176;9.486;2022-07-22T15:24:21;20.60;99.90
18139;DHT22;9195;53.176;9.486;2022-07-22T15:26:46;20.70;99.90
18139;DHT22;9195;53.176;9.486;2022-07-22T15:29:12;20.70;99.90
18139;DHT22;9195;53.176;9.486;2022-07-22T15:31:38;20.60;99.90
18139;DHT22;9195;53.176;9.486;2022-07-22T15:34:03;20.60;99.90
18139;DHT22;9195;53.176;9.486;2022-07-22T15:36:29;20.60;99.90
18139;DHT22;9195;53.176;9.486;2022-07-22T15:38:55;20.50;99.90
18139;DHT22;9195;53.176;9.486;2022-07-22T15:41:20;20.40;99.90
18139;DHT22;9195;53.176;9.486;2022-07-22T15:43:47;20.40;99.90
18139;DHT22;9195;53.176;9.486;2022-07-22T15:46:12;20.50;99.90
18139;DHT22;9195;53.176;9.486;2022-07-22T15:48:38;20.50;99.90
18139;DHT22;9195;53.176;9.486;2022-07-22T15:51:05;20.60;99.90
18139;DHT22;9195;53.176;9.486;2022-07-22T15:53:31;20.70;99.90
18139;DHT22;9195;53.176;9.486;2022-07-22T15:55:57;20.70;99.90
18139;DHT22;9195;53.176;9.486;2022-07-22T15:58:22;20.60;99.90
18139;DHT22;9195;53.176;9.486;2022-07-22T16:01:17;20.60;99.90
18139;DHT22;9195;53.176;9.486;2022-07-22T16:03:43;20.60;99.90
18139;DHT22;9195;53.176;9.486;2022-07-22T16:06:08;20.60;99.90
18139;DHT22;9195;53.176;9.486;2022-07-22T16:08:34;20.40;99.90
18139;DHT22;9195;53.176;9.486;2022-07-22T16:10:59;20.30;99.90